Weather at Gap - Tallard Airfield

Public forecast

Using degrees Celsius for public forecast. Weather courtesy of forecast.io.

Closest aviation weather report (METAR) to Gap - Tallard Airfield

Report is more than 6 hours old.

Closest report is Valence-Chabeuil Airport, 53.5 nm (99.1 km) WNW.

2022/11/14 15:30 (retrieved 2 years ago)

LFLU 141530Z AUTO 20010KT 9999 OVC047 13/10 Q1016

Closest aviation forecast (TAF) to Gap - Tallard Airfield

Forecast is more than 12 hours old.

Closest forecast is Orange-Caritat (BA 115) Air Base, 53.7 nm (99.5 km) WSW.

2023/02/22 21:00 (retrieved 1 year ago)

TAF LFMO 222000Z 2221/2321 VRB02KT 9999 BKN045 TX16/2314Z TN08/2306Z TEMPO 2300/2302 SCT005 BKN010 BECMG 2302/2303 BKN010 TEMPO 2303/2306 BKN003 PROB40 TEMPO 2304/2307 1000 BR BECMG 2307/2309 BKN025 BECMG 2311/2313 19012KT TEMPO 2314/2319 4000 SHRA SCT030TCU BKN035